sensor_id;sensor_type;location;lat;lon;timestamp;pressure;altitude;pressure_sealevel;temperature
65823;BMP180;52585;47.566;19.056;2023-04-24T00:00:46;99644.40;;;12.50
65823;BMP180;52585;47.566;19.056;2023-04-24T00:03:17;99642.00;;;12.50
65823;BMP180;52585;47.566;19.056;2023-04-24T00:05:46;99641.80;;;12.50
65823;BMP180;52585;47.566;19.056;2023-04-24T00:08:12;99639.20;;;12.50
65823;BMP180;52585;47.566;19.056;2023-04-24T00:10:38;99638.40;;;12.50
65823;BMP180;52585;47.566;19.056;2023-04-24T00:13:04;99637.80;;;12.50
65823;BMP180;52585;47.566;19.056;2023-04-24T00:15:31;99635.60;;;12.50
65823;BMP180;52585;47.566;19.056;2023-04-24T00:18:00;99632.00;;;12.50
65823;BMP180;52585;47.566;19.056;2023-04-24T00:20:29;99632.40;;;12.56
65823;BMP180;52585;47.566;19.056;2023-04-24T00:22:55;99635.00;;;12.54
65823;BMP180;52585;47.566;19.056;2023-04-24T00:25:21;99635.20;;;12.60
65823;BMP180;52585;47.566;19.056;2023-04-24T00:27:47;99637.00;;;12.60
65823;BMP180;52585;47.566;19.056;2023-04-24T00:30:13;99635.60;;;12.58
65823;BMP180;52585;47.566;19.056;2023-04-24T00:32:39;99637.40;;;12.50
65823;BMP180;52585;47.566;19.056;2023-04-24T00:35:06;99632.60;;;12.50
65823;BMP180;52585;47.566;19.056;2023-04-24T00:37:32;99631.60;;;12.50
65823;BMP180;52585;47.566;19.056;2023-04-24T00:39:58;99629.00;;;12.50
65823;BMP180;52585;47.566;19.056;2023-04-24T00:42:24;99624.20;;;12.60
65823;BMP180;52585;47.566;19.056;2023-04-24T00:44:51;99620.60;;;12.60
65823;BMP180;52585;47.566;19.056;2023-04-24T00:47:19;99615.40;;;12.62
65823;BMP180;52585;47.566;19.056;2023-04-24T00:49:45;99612.60;;;12.70
65823;BMP180;52585;47.566;19.056;2023-04-24T00:52:11;99624.00;;;12.70
65823;BMP180;52585;47.566;19.056;2023-04-24T00:54:37;99621.80;;;12.80
65823;BMP180;52585;47.566;19.056;2023-04-24T00:57:04;99617.40;;;12.80
65823;BMP180;52585;47.566;19.056;2023-04-24T00:59:31;99620.20;;;12.80
65823;BMP180;52585;47.566;19.056;2023-04-24T01:01:58;99610.80;;;12.80
65823;BMP180;52585;47.566;19.056;2023-04-24T01:04:24;99610.80;;;12.80
65823;BMP180;52585;47.566;19.056;2023-04-24T01:06:52;99612.00;;;12.72
65823;BMP180;52585;47.566;19.056;2023-04-24T01:09:19;99612.00;;;12.80
65823;BMP180;52585;47.566;19.056;2023-04-24T01:11:46;99610.60;;;12.80
65823;BMP180;52585;47.566;19.056;2023-04-24T01:14:12;99613.80;;;12.80
65823;BMP180;52585;47.566;19.056;2023-04-24T01:16:38;99614.20;;;12.78
65823;BMP180;52585;47.566;19.056;2023-04-24T01:19:06;99614.60;;;12.80
65823;BMP180;52585;47.566;19.056;2023-04-24T01:21:37;99611.80;;;12.80
65823;BMP180;52585;47.566;19.056;2023-04-24T01:24:05;99615.60;;;12.74
65823;BMP180;52585;47.566;19.056;2023-04-24T01:26:31;99607.40;;;12.70
65823;BMP180;52585;47.566;19.056;2023-04-24T01:28:58;99607.00;;;12.70
65823;BMP180;52585;47.566;19.056;2023-04-24T01:31:24;99603.00;;;12.70
65823;BMP180;52585;47.566;19.056;2023-04-24T01:33:51;99604.00;;;12.78
65823;BMP180;52585;47.566;19.056;2023-04-24T01:36:18;99597.40;;;12.80
65823;BMP180;52585;47.566;19.056;2023-04-24T01:38:45;99592.60;;;12.82
65823;BMP180;52585;47.566;19.056;2023-04-24T01:41:10;99590.00;;;12.80
65823;BMP180;52585;47.566;19.056;2023-04-24T01:43:36;99588.40;;;12.80
65823;BMP180;52585;47.566;19.056;2023-04-24T01:46:03;99590.60;;;12.86
65823;BMP180;52585;47.566;19.056;2023-04-24T01:48:29;99588.60;;;12.90
65823;BMP180;52585;47.566;19.056;2023-04-24T01:50:57;99585.40;;;12.90
65823;BMP180;52585;47.566;19.056;2023-04-24T01:53:23;99579.40;;;12.90
65823;BMP180;52585;47.566;19.056;2023-04-24T01:55:48;99576.40;;;12.90
65823;BMP180;52585;47.566;19.056;2023-04-24T01:58:15;99572.00;;;12.90
65823;BMP180;52585;47.566;19.056;2023-04-24T02:00:41;99574.20;;;12.98
65823;BMP180;52585;47.566;19.056;2023-04-24T02:03:06;99571.60;;;13.00
65823;BMP180;52585;47.566;19.056;2023-04-24T02:05:32;99564.60;;;13.00
65823;BMP180;52585;47.566;19.056;2023-04-24T02:07:58;99555.40;;;12.96
65823;BMP180;52585;47.566;19.056;2023-04-24T02:10:24;99554.00;;;12.90
65823;BMP180;52585;47.566;19.056;2023-04-24T02:12:50;99552.40;;;12.90
65823;BMP180;52585;47.566;19.056;2023-04-24T02:15:16;99546.00;;;12.96
65823;BMP180;52585;47.566;19.056;2023-04-24T02:17:43;99543.00;;;13.00
65823;BMP180;52585;47.566;19.056;2023-04-24T02:20:09;99541.20;;;13.02
65823;BMP180;52585;47.566;19.056;2023-04-24T02:22:35;99541.80;;;13.00
65823;BMP180;52585;47.566;19.056;2023-04-24T02:25:02;99535.60;;;13.00
65823;BMP180;52585;47.566;19.056;2023-04-24T02:27:28;99532.80;;;12.90
65823;BMP180;52585;47.566;19.056;2023-04-24T02:29:54;99528.40;;;12.90
65823;BMP180;52585;47.566;19.056;2023-04-24T02:32:20;99527.00;;;12.90
65823;BMP180;52585;47.566;19.056;2023-04-24T02:34:46;99525.00;;;12.90
65823;BMP180;52585;47.566;19.056;2023-04-24T02:37:12;99522.80;;;12.90
65823;BMP180;52585;47.566;19.056;2023-04-24T02:39:38;99521.20;;;12.96
65823;BMP180;52585;47.566;19.056;2023-04-24T02:42:04;99520.20;;;13.00
65823;BMP180;52585;47.566;19.056;2023-04-24T02:44:31;99516.80;;;13.00
65823;BMP180;52585;47.566;19.056;2023-04-24T02:46:57;99517.60;;;12.90
65823;BMP180;52585;47.566;19.056;2023-04-24T02:49:22;99523.20;;;12.90
65823;BMP180;52585;47.566;19.056;2023-04-24T02:51:48;99516.40;;;12.90
65823;BMP180;52585;47.566;19.056;2023-04-24T02:54:14;99511.80;;;12.90
65823;BMP180;52585;47.566;19.056;2023-04-24T02:56:40;99514.80;;;12.90
65823;BMP180;52585;47.566;19.056;2023-04-24T02:59:06;99512.80;;;12.90
65823;BMP180;52585;47.566;19.056;2023-04-24T03:01:32;99517.60;;;12.90
65823;BMP180;52585;47.566;19.056;2023-04-24T03:03:58;99514.60;;;12.90
65823;BMP180;52585;47.566;19.056;2023-04-24T03:06:24;99514.80;;;12.84
65823;BMP180;52585;47.566;19.056;2023-04-24T03:08:49;99513.00;;;12.88
65823;BMP180;52585;47.566;19.056;2023-04-24T03:11:15;99511.80;;;12.80
65823;BMP180;52585;47.566;19.056;2023-04-24T03:13:41;99509.80;;;12.90
65823;BMP180;52585;47.566;19.056;2023-04-24T03:16:07;99503.40;;;12.80
65823;BMP180;52585;47.566;19.056;2023-04-24T03:18:33;99506.60;;;12.80
65823;BMP180;52585;47.566;19.056;2023-04-24T03:20:59;99501.60;;;12.80
65823;BMP180;52585;47.566;19.056;2023-04-24T03:23:24;99501.00;;;12.78
65823;BMP180;52585;47.566;19.056;2023-04-24T03:25:50;99498.80;;;12.80
65823;BMP180;52585;47.566;19.056;2023-04-24T03:28:16;99501.80;;;12.74
65823;BMP180;52585;47.566;19.056;2023-04-24T03:30:42;99499.80;;;12.70
65823;BMP180;52585;47.566;19.056;2023-04-24T03:33:08;99507.80;;;12.70
65823;BMP180;52585;47.566;19.056;2023-04-24T03:35:35;99501.20;;;12.80
65823;BMP180;52585;47.566;19.056;2023-04-24T03:38:01;99502.20;;;12.80
65823;BMP180;52585;47.566;19.056;2023-04-24T03:40:29;99506.80;;;12.80
65823;BMP180;52585;47.566;19.056;2023-04-24T03:42:55;99506.00;;;12.74
65823;BMP180;52585;47.566;19.056;2023-04-24T03:45:21;99508.60;;;12.72
65823;BMP180;52585;47.566;19.056;2023-04-24T03:47:47;99502.80;;;12.80
65823;BMP180;52585;47.566;19.056;2023-04-24T03:50:13;99501.40;;;12.72
65823;BMP180;52585;47.566;19.056;2023-04-24T03:52:39;99501.40;;;12.70
65823;BMP180;52585;47.566;19.056;2023-04-24T03:55:06;99498.60;;;12.70
65823;BMP180;52585;47.566;19.056;2023-04-24T03:57:32;99489.00;;;12.70
65823;BMP180;52585;47.566;19.056;2023-04-24T03:59:58;99485.40;;;12.60
65823;BMP180;52585;47.566;19.056;2023-04-24T04:02:24;99488.60;;;12.64
65823;BMP180;52585;47.566;19.056;2023-04-24T04:04:50;99502.80;;;12.70
65823;BMP180;52585;47.566;19.056;2023-04-24T04:07:16;99502.40;;;12.70
65823;BMP180;52585;47.566;19.056;2023-04-24T04:09:42;99501.80;;;12.68
65823;BMP180;52585;47.566;19.056;2023-04-24T04:12:07;99504.40;;;12.60
65823;BMP180;52585;47.566;19.056;2023-04-24T04:14:33;99498.80;;;12.60
65823;BMP180;52585;47.566;19.056;2023-04-24T04:17:00;99505.60;;;12.60
65823;BMP180;52585;47.566;19.056;2023-04-24T04:19:26;99500.40;;;12.60
65823;BMP180;52585;47.566;19.056;2023-04-24T04:21:52;99498.00;;;12.58
65823;BMP180;52585;47.566;19.056;2023-04-24T04:24:21;99499.80;;;12.54
65823;BMP180;52585;47.566;19.056;2023-04-24T04:26:48;99497.80;;;12.54
65823;BMP180;52585;47.566;19.056;2023-04-24T04:29:17;99499.60;;;12.60
65823;BMP180;52585;47.566;19.056;2023-04-24T04:31:44;99492.00;;;12.60
65823;BMP180;52585;47.566;19.056;2023-04-24T04:34:10;99487.40;;;12.60
65823;BMP180;52585;47.566;19.056;2023-04-24T04:36:37;99487.20;;;12.60
65823;BMP180;52585;47.566;19.056;2023-04-24T04:39:06;99490.20;;;12.60
65823;BMP180;52585;47.566;19.056;2023-04-24T04:41:32;99484.00;;;12.60
65823;BMP180;52585;47.566;19.056;2023-04-24T04:44:01;99490.40;;;12.60
65823;BMP180;52585;47.566;19.056;2023-04-24T04:46:31;99496.60;;;12.64
65823;BMP180;52585;47.566;19.056;2023-04-24T04:49:00;99497.40;;;12.64
65823;BMP180;52585;47.566;19.056;2023-04-24T04:51:27;99495.00;;;12.68
65823;BMP180;52585;47.566;19.056;2023-04-24T04:53:53;99490.60;;;12.70
65823;BMP180;52585;47.566;19.056;2023-04-24T04:56:19;99496.20;;;12.70
65823;BMP180;52585;47.566;19.056;2023-04-24T04:58:46;99494.80;;;12.70
65823;BMP180;52585;47.566;19.056;2023-04-24T05:01:12;99486.40;;;12.70
65823;BMP180;52585;47.566;19.056;2023-04-24T05:03:38;99478.60;;;12.70
65823;BMP180;52585;47.566;19.056;2023-04-24T05:06:04;99473.60;;;12.66
65823;BMP180;52585;47.566;19.056;2023-04-24T05:08:30;99474.80;;;12.60
65823;BMP180;52585;47.566;19.056;2023-04-24T05:10:56;99480.60;;;12.70
65823;BMP180;52585;47.566;19.056;2023-04-24T05:13:22;99485.20;;;12.70
65823;BMP180;52585;47.566;19.056;2023-04-24T05:15:48;99477.00;;;12.78
65823;BMP180;52585;47.566;19.056;2023-04-24T05:18:14;99474.20;;;12.80
65823;BMP180;52585;47.566;19.056;2023-04-24T05:20:41;99474.20;;;12.80
65823;BMP180;52585;47.566;19.056;2023-04-24T05:23:09;99474.40;;;12.80
65823;BMP180;52585;47.566;19.056;2023-04-24T05:25:35;99476.60;;;12.80
65823;BMP180;52585;47.566;19.056;2023-04-24T05:28:02;99476.40;;;12.80
65823;BMP180;52585;47.566;19.056;2023-04-24T05:30:29;99483.00;;;12.90
65823;BMP180;52585;47.566;19.056;2023-04-24T05:32:55;99479.60;;;12.90
65823;BMP180;52585;47.566;19.056;2023-04-24T05:35:21;99476.60;;;12.90
65823;BMP180;52585;47.566;19.056;2023-04-24T05:37:46;99470.40;;;12.90
65823;BMP180;52585;47.566;19.056;2023-04-24T05:40:12;99474.40;;;13.00
65823;BMP180;52585;47.566;19.056;2023-04-24T05:42:38;99476.20;;;13.00
65823;BMP180;52585;47.566;19.056;2023-04-24T05:45:05;99486.40;;;13.10
65823;BMP180;52585;47.566;19.056;2023-04-24T05:47:31;99482.20;;;13.10
65823;BMP180;52585;47.566;19.056;2023-04-24T05:49:57;99489.80;;;13.20
65823;BMP180;52585;47.566;19.056;2023-04-24T05:52:23;99490.20;;;13.16
65823;BMP180;52585;47.566;19.056;2023-04-24T05:54:48;99489.00;;;13.20
65823;BMP180;52585;47.566;19.056;2023-04-24T05:57:14;99494.20;;;13.20
65823;BMP180;52585;47.566;19.056;2023-04-24T05:59:40;99489.20;;;13.22
65823;BMP180;52585;47.566;19.056;2023-04-24T06:02:07;99488.40;;;13.28
65823;BMP180;52585;47.566;19.056;2023-04-24T06:04:33;99486.80;;;13.30
65823;BMP180;52585;47.566;19.056;2023-04-24T06:06:59;99485.00;;;13.32
65823;BMP180;52585;47.566;19.056;2023-04-24T06:09:26;99492.20;;;13.40
65823;BMP180;52585;47.566;19.056;2023-04-24T06:11:52;99491.60;;;13.40
65823;BMP180;52585;47.566;19.056;2023-04-24T06:14:19;99487.80;;;13.50
65823;BMP180;52585;47.566;19.056;2023-04-24T06:16:45;99492.80;;;13.54
65823;BMP180;52585;47.566;19.056;2023-04-24T06:19:11;99494.20;;;13.60
65823;BMP180;52585;47.566;19.056;2023-04-24T06:21:37;99492.20;;;13.60
65823;BMP180;52585;47.566;19.056;2023-04-24T06:24:03;99495.00;;;13.70
65823;BMP180;52585;47.566;19.056;2023-04-24T06:26:30;99499.00;;;13.70
65823;BMP180;52585;47.566;19.056;2023-04-24T06:28:57;99493.20;;;13.70
65823;BMP180;52585;47.566;19.056;2023-04-24T06:31:24;99492.00;;;13.70
65823;BMP180;52585;47.566;19.056;2023-04-24T06:33:50;99490.40;;;13.80
65823;BMP180;52585;47.566;19.056;2023-04-24T06:36:16;99488.00;;;13.80
65823;BMP180;52585;47.566;19.056;2023-04-24T06:38:42;99489.00;;;13.90
65823;BMP180;52585;47.566;19.056;2023-04-24T06:41:09;99490.20;;;13.90
65823;BMP180;52585;47.566;19.056;2023-04-24T06:43:35;99486.20;;;13.90
65823;BMP180;52585;47.566;19.056;2023-04-24T06:46:01;99482.40;;;14.00
65823;BMP180;52585;47.566;19.056;2023-04-24T06:48:29;99480.40;;;14.00
65823;BMP180;52585;47.566;19.056;2023-04-24T06:50:55;99485.40;;;14.06
65823;BMP180;52585;47.566;19.056;2023-04-24T06:53:21;99487.00;;;14.10
65823;BMP180;52585;47.566;19.056;2023-04-24T06:55:47;99485.00;;;14.10
65823;BMP180;52585;47.566;19.056;2023-04-24T06:58:14;99483.20;;;14.18
65823;BMP180;52585;47.566;19.056;2023-04-24T07:00:41;99485.20;;;14.20
65823;BMP180;52585;47.566;19.056;2023-04-24T07:03:07;99486.60;;;14.20
65823;BMP180;52585;47.566;19.056;2023-04-24T07:05:33;99493.20;;;14.30
65823;BMP180;52585;47.566;19.056;2023-04-24T07:08:04;99497.20;;;14.30
65823;BMP180;52585;47.566;19.056;2023-04-24T07:10:30;99493.80;;;14.40
65823;BMP180;52585;47.566;19.056;2023-04-24T07:12:56;99499.00;;;14.40
65823;BMP180;52585;47.566;19.056;2023-04-24T07:15:22;99488.00;;;14.40
65823;BMP180;52585;47.566;19.056;2023-04-24T07:17:49;99484.40;;;14.50
65823;BMP180;52585;47.566;19.056;2023-04-24T07:20:15;99483.80;;;14.50
65823;BMP180;52585;47.566;19.056;2023-04-24T07:22:41;99479.80;;;14.50
65823;BMP180;52585;47.566;19.056;2023-04-24T07:25:09;99481.20;;;14.50
65823;BMP180;52585;47.566;19.056;2023-04-24T07:27:35;99473.20;;;14.50
65823;BMP180;52585;47.566;19.056;2023-04-24T07:30:03;99476.80;;;14.60
65823;BMP180;52585;47.566;19.056;2023-04-24T07:32:30;99478.80;;;14.60
65823;BMP180;52585;47.566;19.056;2023-04-24T07:34:55;99486.00;;;14.60
65823;BMP180;52585;47.566;19.056;2023-04-24T07:37:22;99486.40;;;14.62
65823;BMP180;52585;47.566;19.056;2023-04-24T07:39:49;99485.60;;;14.70
65823;BMP180;52585;47.566;19.056;2023-04-24T07:42:15;99485.80;;;14.70
65823;BMP180;52585;47.566;19.056;2023-04-24T07:44:41;99482.20;;;14.70
65823;BMP180;52585;47.566;19.056;2023-04-24T07:47:07;99476.80;;;14.70
65823;BMP180;52585;47.566;19.056;2023-04-24T07:49:33;99474.00;;;14.70
65823;BMP180;52585;47.566;19.056;2023-04-24T07:52:00;99475.20;;;14.74
65823;BMP180;52585;47.566;19.056;2023-04-24T07:54:28;99475.20;;;14.80
65823;BMP180;52585;47.566;19.056;2023-04-24T07:56:54;99477.00;;;14.80
65823;BMP180;52585;47.566;19.056;2023-04-24T07:59:20;99476.00;;;14.82
65823;BMP180;52585;47.566;19.056;2023-04-24T08:01:45;99479.20;;;14.90
65823;BMP180;52585;47.566;19.056;2023-04-24T08:04:11;99474.20;;;15.00
65823;BMP180;52585;47.566;19.056;2023-04-24T08:06:37;99476.20;;;15.00
65823;BMP180;52585;47.566;19.056;2023-04-24T08:09:03;99472.80;;;15.10
65823;BMP180;52585;47.566;19.056;2023-04-24T08:11:28;99473.20;;;15.20
65823;BMP180;52585;47.566;19.056;2023-04-24T08:13:54;99485.60;;;15.30
65823;BMP180;52585;47.566;19.056;2023-04-24T08:16:20;99473.20;;;15.32
65823;BMP180;52585;47.566;19.056;2023-04-24T08:18:46;99477.00;;;15.40
65823;BMP180;52585;47.566;19.056;2023-04-24T08:21:12;99475.40;;;15.50
65823;BMP180;52585;47.566;19.056;2023-04-24T08:23:43;99475.20;;;15.50
65823;BMP180;52585;47.566;19.056;2023-04-24T08:26:09;99474.20;;;15.60
65823;BMP180;52585;47.566;19.056;2023-04-24T08:28:36;99471.80;;;15.70
65823;BMP180;52585;47.566;19.056;2023-04-24T08:31:02;99468.60;;;15.70
65823;BMP180;52585;47.566;19.056;2023-04-24T08:33:28;99471.20;;;15.80
65823;BMP180;52585;47.566;19.056;2023-04-24T08:36:04;99474.80;;;15.88
65823;BMP180;52585;47.566;19.056;2023-04-24T08:38:30;99473.40;;;15.90
65823;BMP180;52585;47.566;19.056;2023-04-24T08:40:58;99473.20;;;15.90
65823;BMP180;52585;47.566;19.056;2023-04-24T08:43:26;99477.60;;;16.00
65823;BMP180;52585;47.566;19.056;2023-04-24T08:45:55;99477.40;;;16.00
65823;BMP180;52585;47.566;19.056;2023-04-24T08:48:22;99476.80;;;16.10
65823;BMP180;52585;47.566;19.056;2023-04-24T08:50:50;99475.00;;;16.10
65823;BMP180;52585;47.566;19.056;2023-04-24T08:53:18;99474.40;;;16.14
65823;BMP180;52585;47.566;19.056;2023-04-24T08:55:48;99471.00;;;16.20
65823;BMP180;52585;47.566;19.056;2023-04-24T08:58:16;99475.40;;;16.20
65823;BMP180;52585;47.566;19.056;2023-04-24T09:00:44;99470.00;;;16.20
65823;BMP180;52585;47.566;19.056;2023-04-24T09:03:16;99467.80;;;16.20
65823;BMP180;52585;47.566;19.056;2023-04-24T09:05:50;99466.20;;;16.30
65823;BMP180;52585;47.566;19.056;2023-04-24T09:08:19;99465.80;;;16.30
65823;BMP180;52585;47.566;19.056;2023-04-24T09:10:46;99461.60;;;16.30
65823;BMP180;52585;47.566;19.056;2023-04-24T09:13:13;99463.00;;;16.30
65823;BMP180;52585;47.566;19.056;2023-04-24T09:15:42;99465.80;;;16.40
65823;BMP180;52585;47.566;19.056;2023-04-24T09:18:08;99463.80;;;16.40
65823;BMP180;52585;47.566;19.056;2023-04-24T09:20:33;99464.20;;;16.48
65823;BMP180;52585;47.566;19.056;2023-04-24T09:23:01;99459.60;;;16.50
65823;BMP180;52585;47.566;19.056;2023-04-24T09:25:35;99450.40;;;16.60
65823;BMP180;52585;47.566;19.056;2023-04-24T09:28:05;99448.80;;;16.60
65823;BMP180;52585;47.566;19.056;2023-04-24T09:30:32;99446.60;;;16.70
65823;BMP180;52585;47.566;19.056;2023-04-24T09:33:14;99443.20;;;16.76
65823;BMP180;52585;47.566;19.056;2023-04-24T09:35:43;99439.80;;;16.80
65823;BMP180;52585;47.566;19.056;2023-04-24T09:38:13;99441.20;;;16.90
65823;BMP180;52585;47.566;19.056;2023-04-24T09:40:39;99436.60;;;16.90
65823;BMP180;52585;47.566;19.056;2023-04-24T09:43:11;99436.40;;;17.00
65823;BMP180;52585;47.566;19.056;2023-04-24T09:45:39;99431.40;;;17.00
65823;BMP180;52585;47.566;19.056;2023-04-24T09:48:05;99426.20;;;17.10
65823;BMP180;52585;47.566;19.056;2023-04-24T09:50:34;99432.00;;;17.12
65823;BMP180;52585;47.566;19.056;2023-04-24T09:53:05;99430.20;;;17.20
65823;BMP180;52585;47.566;19.056;2023-04-24T09:55:42;99430.40;;;17.20
65823;BMP180;52585;47.566;19.056;2023-04-24T09:58:10;99431.00;;;17.20
65823;BMP180;52585;47.566;19.056;2023-04-24T10:00:36;99428.60;;;17.24
65823;BMP180;52585;47.566;19.056;2023-04-24T10:03:04;99428.60;;;17.22
65823;BMP180;52585;47.566;19.056;2023-04-24T10:05:36;99426.00;;;17.30
65823;BMP180;52585;47.566;19.056;2023-04-24T10:08:10;99418.60;;;17.30
65823;BMP180;52585;47.566;19.056;2023-04-24T10:10:45;99421.80;;;17.30
65823;BMP180;52585;47.566;19.056;2023-04-24T10:13:13;99419.00;;;17.30
65823;BMP180;52585;47.566;19.056;2023-04-24T10:15:41;99423.60;;;17.30
65823;BMP180;52585;47.566;19.056;2023-04-24T10:18:09;99426.40;;;17.30
65823;BMP180;52585;47.566;19.056;2023-04-24T10:20:38;99422.00;;;17.30
65823;BMP180;52585;47.566;19.056;2023-04-24T10:23:04;99422.00;;;17.30
65823;BMP180;52585;47.566;19.056;2023-04-24T10:25:34;99419.20;;;17.30
65823;BMP180;52585;47.566;19.056;2023-04-24T10:28:02;99421.20;;;17.30
65823;BMP180;52585;47.566;19.056;2023-04-24T10:30:31;99425.80;;;17.30
65823;BMP180;52585;47.566;19.056;2023-04-24T10:33:02;99415.20;;;17.30
65823;BMP180;52585;47.566;19.056;2023-04-24T10:35:37;99414.00;;;17.30
65823;BMP180;52585;47.566;19.056;2023-04-24T10:38:21;99411.80;;;17.30
65823;BMP180;52585;47.566;19.056;2023-04-24T10:40:50;99414.80;;;17.30
65823;BMP180;52585;47.566;19.056;2023-04-24T10:43:17;99414.40;;;17.30
65823;BMP180;52585;47.566;19.056;2023-04-24T10:46:02;99407.40;;;17.32
65823;BMP180;52585;47.566;19.056;2023-04-24T10:48:29;99410.80;;;17.36
65823;BMP180;52585;47.566;19.056;2023-04-24T10:50:55;99403.60;;;17.34
65823;BMP180;52585;47.566;19.056;2023-04-24T10:53:28;99409.00;;;17.32
65823;BMP180;52585;47.566;19.056;2023-04-24T10:56:04;99408.60;;;17.36
65823;BMP180;52585;47.566;19.056;2023-04-24T10:58:59;99409.20;;;17.30
65823;BMP180;52585;47.566;19.056;2023-04-24T11:01:28;99410.60;;;17.40
65823;BMP180;52585;47.566;19.056;2023-04-24T11:03:58;99412.80;;;17.40
65823;BMP180;52585;47.566;19.056;2023-04-24T11:06:35;99409.40;;;17.40
65823;BMP180;52585;47.566;19.056;2023-04-24T11:09:09;99409.40;;;17.40
65823;BMP180;52585;47.566;19.056;2023-04-24T11:11:38;99407.80;;;17.32
65823;BMP180;52585;47.566;19.056;2023-04-24T11:14:10;99405.40;;;17.34
65823;BMP180;52585;47.566;19.056;2023-04-24T11:16:44;99404.40;;;17.36
65823;BMP180;52585;47.566;19.056;2023-04-24T11:24:49;99395.00;;;17.40
65823;BMP180;52585;47.566;19.056;2023-04-24T11:27:21;99399.00;;;17.40
65823;BMP180;52585;47.566;19.056;2023-04-24T11:29:59;99399.80;;;17.40
65823;BMP180;52585;47.566;19.056;2023-04-24T11:35:13;99391.20;;;17.40
65823;BMP180;52585;47.566;19.056;2023-04-24T11:37:48;99390.40;;;17.40
65823;BMP180;52585;47.566;19.056;2023-04-24T11:40:19;99381.40;;;17.46
65823;BMP180;52585;47.566;19.056;2023-04-24T11:42:47;99377.60;;;17.50
65823;BMP180;52585;47.566;19.056;2023-04-24T11:45:16;99382.80;;;17.50
65823;BMP180;52585;47.566;19.056;2023-04-24T11:47:43;99375.40;;;17.50
65823;BMP180;52585;47.566;19.056;2023-04-24T11:50:13;99376.20;;;17.50
65823;BMP180;52585;47.566;19.056;2023-04-24T11:52:42;99377.40;;;17.56
65823;BMP180;52585;47.566;19.056;2023-04-24T11:55:29;99379.00;;;17.60
65823;BMP180;52585;47.566;19.056;2023-04-24T11:57:57;99369.00;;;17.60
65823;BMP180;52585;47.566;19.056;2023-04-24T12:00:30;99369.80;;;17.60
65823;BMP180;52585;47.566;19.056;2023-04-24T12:03:13;99365.20;;;17.60
65823;BMP180;52585;47.566;19.056;2023-04-24T12:05:40;99358.80;;;17.70
65823;BMP180;52585;47.566;19.056;2023-04-24T12:08:05;99358.40;;;17.70
65823;BMP180;52585;47.566;19.056;2023-04-24T12:10:33;99349.20;;;17.80
65823;BMP180;52585;47.566;19.056;2023-04-24T12:13:00;99348.20;;;17.80
65823;BMP180;52585;47.566;19.056;2023-04-24T12:15:27;99345.60;;;17.80
65823;BMP180;52585;47.566;19.056;2023-04-24T12:17:54;99342.20;;;17.82
65823;BMP180;52585;47.566;19.056;2023-04-24T12:20:28;99338.40;;;17.86
65823;BMP180;52585;47.566;19.056;2023-04-24T12:22:59;99337.80;;;17.90
65823;BMP180;52585;47.566;19.056;2023-04-24T12:25:28;99335.40;;;17.80
65823;BMP180;52585;47.566;19.056;2023-04-24T12:28:10;99332.20;;;17.80
65823;BMP180;52585;47.566;19.056;2023-04-24T12:30:46;99332.60;;;17.80
65823;BMP180;52585;47.566;19.056;2023-04-24T12:33:23;99324.80;;;17.80
65823;BMP180;52585;47.566;19.056;2023-04-24T12:35:52;99326.20;;;17.80
65823;BMP180;52585;47.566;19.056;2023-04-24T12:38:27;99325.40;;;17.80
65823;BMP180;52585;47.566;19.056;2023-04-24T12:41:12;99324.00;;;17.70
65823;BMP180;52585;47.566;19.056;2023-04-24T12:43:38;99321.00;;;17.70
65823;BMP180;52585;47.566;19.056;2023-04-24T12:46:04;99317.40;;;17.60
65823;BMP180;52585;47.566;19.056;2023-04-24T12:48:31;99315.80;;;17.60
65823;BMP180;52585;47.566;19.056;2023-04-24T12:50:58;99307.40;;;17.60
65823;BMP180;52585;47.566;19.056;2023-04-24T12:53:28;99308.00;;;17.60
65823;BMP180;52585;47.566;19.056;2023-04-24T12:55:55;99304.20;;;17.54
65823;BMP180;52585;47.566;19.056;2023-04-24T12:58:21;99307.60;;;17.50
65823;BMP180;52585;47.566;19.056;2023-04-24T13:00:47;99300.60;;;17.50
65823;BMP180;52585;47.566;19.056;2023-04-24T13:03:14;99301.20;;;17.50
65823;BMP180;52585;47.566;19.056;2023-04-24T13:05:42;99295.80;;;17.50
65823;BMP180;52585;47.566;19.056;2023-04-24T13:08:08;99298.20;;;17.56
65823;BMP180;52585;47.566;19.056;2023-04-24T13:10:34;99299.40;;;17.52
65823;BMP180;52585;47.566;19.056;2023-04-24T13:13:00;99292.20;;;17.50
65823;BMP180;52585;47.566;19.056;2023-04-24T13:15:26;99291.00;;;17.50
65823;BMP180;52585;47.566;19.056;2023-04-24T13:17:51;99280.80;;;17.52
65823;BMP180;52585;47.566;19.056;2023-04-24T13:20:18;99284.20;;;17.58
65823;BMP180;52585;47.566;19.056;2023-04-24T13:22:44;99272.80;;;17.60
65823;BMP180;52585;47.566;19.056;2023-04-24T13:25:09;99279.20;;;17.60
65823;BMP180;52585;47.566;19.056;2023-04-24T13:27:38;99275.20;;;17.60
65823;BMP180;52585;47.566;19.056;2023-04-24T13:30:05;99267.00;;;17.60
65823;BMP180;52585;47.566;19.056;2023-04-24T13:32:32;99267.40;;;17.60
65823;BMP180;52585;47.566;19.056;2023-04-24T13:34:58;99267.00;;;17.60
65823;BMP180;52585;47.566;19.056;2023-04-24T13:37:24;99263.60;;;17.60
65823;BMP180;52585;47.566;19.056;2023-04-24T13:39:50;99265.00;;;17.54
65823;BMP180;52585;47.566;19.056;2023-04-24T13:42:16;99267.40;;;17.50
65823;BMP180;52585;47.566;19.056;2023-04-24T13:44:42;99266.00;;;17.50
65823;BMP180;52585;47.566;19.056;2023-04-24T13:47:08;99266.40;;;17.50
65823;BMP180;52585;47.566;19.056;2023-04-24T13:49:36;99257.60;;;17.40
65823;BMP180;52585;47.566;19.056;2023-04-24T13:52:10;99253.60;;;17.40
65823;BMP180;52585;47.566;19.056;2023-04-24T13:54:41;99248.80;;;17.40
65823;BMP180;52585;47.566;19.056;2023-04-24T13:57:15;99259.40;;;17.40
65823;BMP180;52585;47.566;19.056;2023-04-24T13:59:47;99265.20;;;17.40
65823;BMP180;52585;47.566;19.056;2023-04-24T14:02:20;99265.20;;;17.40
65823;BMP180;52585;47.566;19.056;2023-04-24T14:04:46;99268.20;;;17.38
65823;BMP180;52585;47.566;19.056;2023-04-24T14:07:13;99276.60;;;17.32